sensor_id;sensor_type;location;lat;lon;timestamp;temperature;humidity
45339;DHT22;31071;51.478;5.710;2023-08-12T00:00:30;20.80;99.90
45339;DHT22;31071;51.478;5.710;2023-08-12T00:02:55;20.80;99.90
45339;DHT22;31071;51.478;5.710;2023-08-12T00:05:21;20.90;99.90
45339;DHT22;31071;51.478;5.710;2023-08-12T00:07:48;20.80;99.90
45339;DHT22;31071;51.478;5.710;2023-08-12T00:10:14;20.80;99.90
45339;DHT22;31071;51.478;5.710;2023-08-12T00:12:40;20.80;99.90
45339;DHT22;31071;51.478;5.710;2023-08-12T00:15:06;20.90;99.90
45339;DHT22;31071;51.478;5.710;2023-08-12T00:17:34;20.80;99.90
45339;DHT22;31071;51.478;5.710;2023-08-12T00:20:00;20.80;99.90
45339;DHT22;31071;51.478;5.710;2023-08-12T00:22:26;21.00;99.90
45339;DHT22;31071;51.478;5.710;2023-08-12T00:24:51;20.60;99.90
45339;DHT22;31071;51.478;5.710;2023-08-12T00:27:18;20.80;99.90
45339;DHT22;31071;51.478;5.710;2023-08-12T00:29:43;20.70;99.90
45339;DHT22;31071;51.478;5.710;2023-08-12T00:32:09;20.70;99.90
45339;DHT22;31071;51.478;5.710;2023-08-12T00:34:34;20.60;99.90
45339;DHT22;31071;51.478;5.710;2023-08-12T00:37:00;20.60;99.90
45339;DHT22;31071;51.478;5.710;2023-08-12T00:39:26;20.70;99.90
45339;DHT22;31071;51.478;5.710;2023-08-12T00:41:51;20.70;99.90
45339;DHT22;31071;51.478;5.710;2023-08-12T00:44:17;20.90;99.90
45339;DHT22;31071;51.478;5.710;2023-08-12T00:46:42;20.70;99.90
45339;DHT22;31071;51.478;5.710;2023-08-12T00:49:09;20.70;99.90
45339;DHT22;31071;51.478;5.710;2023-08-12T00:51:35;20.70;99.90
45339;DHT22;31071;51.478;5.710;2023-08-12T00:54:04;20.60;99.90
45339;DHT22;31071;51.478;5.710;2023-08-12T00:56:31;20.60;99.90
45339;DHT22;31071;51.478;5.710;2023-08-12T00:58:59;20.70;99.90
45339;DHT22;31071;51.478;5.710;2023-08-12T01:01:25;20.60;99.90
45339;DHT22;31071;51.478;5.710;2023-08-12T01:03:51;20.50;99.90
45339;DHT22;31071;51.478;5.710;2023-08-12T01:06:17;20.50;99.90
45339;DHT22;31071;51.478;5.710;2023-08-12T01:08:43;20.50;99.90
45339;DHT22;31071;51.478;5.710;2023-08-12T01:16:40;20.40;99.90
45339;DHT22;31071;51.478;5.710;2023-08-12T01:19:10;20.40;99.90
45339;DHT22;31071;51.478;5.710;2023-08-12T01:21:41;20.40;99.90
45339;DHT22;31071;51.478;5.710;2023-08-12T01:24:08;20.40;99.90
45339;DHT22;31071;51.478;5.710;2023-08-12T01:26:34;20.40;99.90
45339;DHT22;31071;51.478;5.710;2023-08-12T01:28:59;20.50;99.90
45339;DHT22;31071;51.478;5.710;2023-08-12T01:31:36;20.70;99.90
45339;DHT22;31071;51.478;5.710;2023-08-12T01:34:40;20.30;99.90
45339;DHT22;31071;51.478;5.710;2023-08-12T01:37:08;20.30;99.90
45339;DHT22;31071;51.478;5.710;2023-08-12T01:39:35;20.40;99.90
45339;DHT22;31071;51.478;5.710;2023-08-12T01:42:02;20.40;99.90
45339;DHT22;31071;51.478;5.710;2023-08-12T01:44:28;20.30;99.90
45339;DHT22;31071;51.478;5.710;2023-08-12T01:46:54;20.80;99.90
45339;DHT22;31071;51.478;5.710;2023-08-12T01:49:19;20.90;99.90
45339;DHT22;31071;51.478;5.710;2023-08-12T01:51:45;20.40;99.90
45339;DHT22;31071;51.478;5.710;2023-08-12T01:54:10;20.40;99.90
45339;DHT22;31071;51.478;5.710;2023-08-12T01:56:36;20.40;99.90
45339;DHT22;31071;51.478;5.710;2023-08-12T01:59:01;20.80;99.90
45339;DHT22;31071;51.478;5.710;2023-08-12T02:01:27;20.40;99.90
45339;DHT22;31071;51.478;5.710;2023-08-12T02:03:52;20.50;99.90
45339;DHT22;31071;51.478;5.710;2023-08-12T02:06:18;20.60;99.90
45339;DHT22;31071;51.478;5.710;2023-08-12T02:08:44;20.40;99.90
45339;DHT22;31071;51.478;5.710;2023-08-12T02:11:10;20.40;99.90
45339;DHT22;31071;51.478;5.710;2023-08-12T02:13:35;20.40;99.90
45339;DHT22;31071;51.478;5.710;2023-08-12T02:16:01;20.40;99.90
45339;DHT22;31071;51.478;5.710;2023-08-12T02:18:26;20.50;99.90
45339;DHT22;31071;51.478;5.710;2023-08-12T02:20:52;20.40;99.90
45339;DHT22;31071;51.478;5.710;2023-08-12T02:23:18;20.40;99.90
45339;DHT22;31071;51.478;5.710;2023-08-12T02:25:45;20.40;99.90
45339;DHT22;31071;51.478;5.710;2023-08-12T02:28:11;20.50;99.90
45339;DHT22;31071;51.478;5.710;2023-08-12T02:30:37;20.40;99.90
45339;DHT22;31071;51.478;5.710;2023-08-12T02:33:02;20.40;99.90
45339;DHT22;31071;51.478;5.710;2023-08-12T02:35:28;20.40;99.90
45339;DHT22;31071;51.478;5.710;2023-08-12T02:37:53;20.50;99.90
45339;DHT22;31071;51.478;5.710;2023-08-12T02:40:19;20.30;99.90
45339;DHT22;31071;51.478;5.710;2023-08-12T02:42:44;20.30;99.90
45339;DHT22;31071;51.478;5.710;2023-08-12T02:45:10;20.30;99.90
45339;DHT22;31071;51.478;5.710;2023-08-12T02:47:35;20.30;99.90
45339;DHT22;31071;51.478;5.710;2023-08-12T02:50:01;20.30;99.90
45339;DHT22;31071;51.478;5.710;2023-08-12T02:52:27;20.60;99.90
45339;DHT22;31071;51.478;5.710;2023-08-12T02:54:53;20.20;99.90
45339;DHT22;31071;51.478;5.710;2023-08-12T02:57:20;20.20;99.90
45339;DHT22;31071;51.478;5.710;2023-08-12T02:59:45;20.20;99.90
45339;DHT22;31071;51.478;5.710;2023-08-12T03:02:11;20.30;99.90
45339;DHT22;31071;51.478;5.710;2023-08-12T03:04:36;20.30;99.90
45339;DHT22;31071;51.478;5.710;2023-08-12T03:07:02;20.20;99.90
45339;DHT22;31071;51.478;5.710;2023-08-12T03:09:28;20.20;99.90
45339;DHT22;31071;51.478;5.710;2023-08-12T03:11:53;20.20;99.90
45339;DHT22;31071;51.478;5.710;2023-08-12T03:14:19;20.30;99.90
45339;DHT22;31071;51.478;5.710;2023-08-12T03:16:45;20.30;99.90
45339;DHT22;31071;51.478;5.710;2023-08-12T03:19:10;20.30;99.90
45339;DHT22;31071;51.478;5.710;2023-08-12T03:21:36;20.20;99.90
45339;DHT22;31071;51.478;5.710;2023-08-12T03:24:01;20.10;99.90
45339;DHT22;31071;51.478;5.710;2023-08-12T03:26:27;20.10;99.90
45339;DHT22;31071;51.478;5.710;2023-08-12T03:28:53;20.10;99.90
45339;DHT22;31071;51.478;5.710;2023-08-12T03:31:18;20.40;99.90
45339;DHT22;31071;51.478;5.710;2023-08-12T03:33:44;20.20;99.90
45339;DHT22;31071;51.478;5.710;2023-08-12T03:36:09;20.20;99.90
45339;DHT22;31071;51.478;5.710;2023-08-12T03:38:35;20.20;99.90
45339;DHT22;31071;51.478;5.710;2023-08-12T03:41:02;20.30;99.90
45339;DHT22;31071;51.478;5.710;2023-08-12T03:43:27;20.00;99.90
45339;DHT22;31071;51.478;5.710;2023-08-12T03:45:53;20.20;99.90
45339;DHT22;31071;51.478;5.710;2023-08-12T03:48:19;20.20;99.90
45339;DHT22;31071;51.478;5.710;2023-08-12T03:50:44;20.20;99.90
45339;DHT22;31071;51.478;5.710;2023-08-12T03:53:12;20.20;99.90
45339;DHT22;31071;51.478;5.710;2023-08-12T03:55:37;20.20;99.90
45339;DHT22;31071;51.478;5.710;2023-08-12T03:58:03;20.10;99.90
45339;DHT22;31071;51.478;5.710;2023-08-12T04:00:28;20.10;99.90
45339;DHT22;31071;51.478;5.710;2023-08-12T04:02:54;20.10;99.90
45339;DHT22;31071;51.478;5.710;2023-08-12T04:05:20;20.00;99.90
45339;DHT22;31071;51.478;5.710;2023-08-12T04:07:45;20.00;99.90
45339;DHT22;31071;51.478;5.710;2023-08-12T04:10:11;20.00;99.90
45339;DHT22;31071;51.478;5.710;2023-08-12T04:12:37;20.00;99.90
45339;DHT22;31071;51.478;5.710;2023-08-12T04:15:03;19.90;99.90
45339;DHT22;31071;51.478;5.710;2023-08-12T04:17:31;19.90;99.90
45339;DHT22;31071;51.478;5.710;2023-08-12T04:19:56;20.00;99.90
45339;DHT22;31071;51.478;5.710;2023-08-12T04:22:22;20.60;99.90
45339;DHT22;31071;51.478;5.710;2023-08-12T04:24:47;20.00;99.90
45339;DHT22;31071;51.478;5.710;2023-08-12T04:27:13;20.50;99.90
45339;DHT22;31071;51.478;5.710;2023-08-12T04:29:38;20.10;99.90
45339;DHT22;31071;51.478;5.710;2023-08-12T04:32:04;20.10;99.90
45339;DHT22;31071;51.478;5.710;2023-08-12T04:34:30;20.20;99.90
45339;DHT22;31071;51.478;5.710;2023-08-12T04:36:55;20.10;99.90
45339;DHT22;31071;51.478;5.710;2023-08-12T04:39:21;20.10;99.90
45339;DHT22;31071;51.478;5.710;2023-08-12T04:41:47;20.10;99.90
45339;DHT22;31071;51.478;5.710;2023-08-12T04:44:13;20.00;99.90
45339;DHT22;31071;51.478;5.710;2023-08-12T04:46:38;20.00;99.90
45339;DHT22;31071;51.478;5.710;2023-08-12T04:49:05;20.10;99.90
45339;DHT22;31071;51.478;5.710;2023-08-12T04:51:31;20.00;99.90
45339;DHT22;31071;51.478;5.710;2023-08-12T04:53:56;20.00;99.90
45339;DHT22;31071;51.478;5.710;2023-08-12T04:56:23;19.90;99.90
45339;DHT22;31071;51.478;5.710;2023-08-12T04:58:49;19.90;99.90
45339;DHT22;31071;51.478;5.710;2023-08-12T05:01:15;19.90;99.90
45339;DHT22;31071;51.478;5.710;2023-08-12T05:03:40;20.00;99.90
45339;DHT22;31071;51.478;5.710;2023-08-12T05:06:06;19.80;99.90
45339;DHT22;31071;51.478;5.710;2023-08-12T05:08:32;19.70;99.90
45339;DHT22;31071;51.478;5.710;2023-08-12T05:10:57;19.60;99.90
45339;DHT22;31071;51.478;5.710;2023-08-12T05:13:23;19.60;99.90
45339;DHT22;31071;51.478;5.710;2023-08-12T05:15:49;19.50;99.90
45339;DHT22;31071;51.478;5.710;2023-08-12T05:18:15;19.40;99.90
45339;DHT22;31071;51.478;5.710;2023-08-12T05:20:41;19.30;99.90
45339;DHT22;31071;51.478;5.710;2023-08-12T05:23:08;19.30;99.90
45339;DHT22;31071;51.478;5.710;2023-08-12T05:25:33;19.20;99.90
45339;DHT22;31071;51.478;5.710;2023-08-12T05:27:59;19.20;99.90
45339;DHT22;31071;51.478;5.710;2023-08-12T05:30:24;19.20;99.90
45339;DHT22;31071;51.478;5.710;2023-08-12T05:32:50;19.30;99.90
45339;DHT22;31071;51.478;5.710;2023-08-12T05:35:15;19.30;99.90
45339;DHT22;31071;51.478;5.710;2023-08-12T05:37:41;19.20;99.90
45339;DHT22;31071;51.478;5.710;2023-08-12T05:40:08;19.10;99.90
45339;DHT22;31071;51.478;5.710;2023-08-12T05:42:35;19.10;99.90
45339;DHT22;31071;51.478;5.710;2023-08-12T05:45:01;19.10;99.90
45339;DHT22;31071;51.478;5.710;2023-08-12T05:47:26;19.10;99.90
45339;DHT22;31071;51.478;5.710;2023-08-12T05:49:52;19.00;99.90
45339;DHT22;31071;51.478;5.710;2023-08-12T05:52:17;19.00;99.90
45339;DHT22;31071;51.478;5.710;2023-08-12T05:54:43;19.00;99.90
45339;DHT22;31071;51.478;5.710;2023-08-12T05:57:08;19.00;99.90
45339;DHT22;31071;51.478;5.710;2023-08-12T05:59:34;19.00;99.90
45339;DHT22;31071;51.478;5.710;2023-08-12T06:01:59;19.10;99.90
45339;DHT22;31071;51.478;5.710;2023-08-12T06:04:25;19.10;99.90
45339;DHT22;31071;51.478;5.710;2023-08-12T06:06:50;19.10;99.90
45339;DHT22;31071;51.478;5.710;2023-08-12T06:09:16;19.10;99.90
45339;DHT22;31071;51.478;5.710;2023-08-12T06:11:41;19.10;99.90
45339;DHT22;31071;51.478;5.710;2023-08-12T06:14:07;19.10;99.90
45339;DHT22;31071;51.478;5.710;2023-08-12T06:16:33;19.30;99.90
45339;DHT22;31071;51.478;5.710;2023-08-12T06:18:59;19.20;99.90
45339;DHT22;31071;51.478;5.710;2023-08-12T06:21:25;19.10;99.90
45339;DHT22;31071;51.478;5.710;2023-08-12T06:23:50;19.20;99.90
45339;DHT22;31071;51.478;5.710;2023-08-12T06:26:16;19.10;99.90
45339;DHT22;31071;51.478;5.710;2023-08-12T06:28:41;19.10;99.90
45339;DHT22;31071;51.478;5.710;2023-08-12T06:31:07;19.10;99.90
45339;DHT22;31071;51.478;5.710;2023-08-12T06:33:32;19.10;99.90
45339;DHT22;31071;51.478;5.710;2023-08-12T06:35:58;19.10;99.90
45339;DHT22;31071;51.478;5.710;2023-08-12T06:38:23;19.10;99.90
45339;DHT22;31071;51.478;5.710;2023-08-12T06:40:49;19.20;99.90
45339;DHT22;31071;51.478;5.710;2023-08-12T06:43:14;19.30;99.90
45339;DHT22;31071;51.478;5.710;2023-08-12T06:45:40;19.30;99.90
45339;DHT22;31071;51.478;5.710;2023-08-12T06:48:06;19.30;99.90
45339;DHT22;31071;51.478;5.710;2023-08-12T06:50:31;19.20;99.90
45339;DHT22;31071;51.478;5.710;2023-08-12T06:52:58;19.40;99.90
45339;DHT22;31071;51.478;5.710;2023-08-12T06:55:24;19.40;99.90
45339;DHT22;31071;51.478;5.710;2023-08-12T06:57:49;19.40;99.90
45339;DHT22;31071;51.478;5.710;2023-08-12T07:00:15;19.70;99.90
45339;DHT22;31071;51.478;5.710;2023-08-12T07:02:40;19.50;99.90
45339;DHT22;31071;51.478;5.710;2023-08-12T07:05:08;19.50;99.90
45339;DHT22;31071;51.478;5.710;2023-08-12T07:07:34;20.60;99.90
45339;DHT22;31071;51.478;5.710;2023-08-12T07:09:59;19.50;99.90
45339;DHT22;31071;51.478;5.710;2023-08-12T07:12:25;19.50;99.90
45339;DHT22;31071;51.478;5.710;2023-08-12T07:14:50;19.50;99.90
45339;DHT22;31071;51.478;5.710;2023-08-12T07:17:16;19.60;99.90
45339;DHT22;31071;51.478;5.710;2023-08-12T07:19:43;19.50;99.90
45339;DHT22;31071;51.478;5.710;2023-08-12T07:22:09;19.50;99.90
45339;DHT22;31071;51.478;5.710;2023-08-12T07:24:34;19.70;99.90
45339;DHT22;31071;51.478;5.710;2023-08-12T07:27:00;19.60;99.90
45339;DHT22;31071;51.478;5.710;2023-08-12T07:29:26;19.70;99.90
45339;DHT22;31071;51.478;5.710;2023-08-12T07:31:52;19.70;99.90
45339;DHT22;31071;51.478;5.710;2023-08-12T07:34:17;19.70;99.90
45339;DHT22;31071;51.478;5.710;2023-08-12T07:36:43;19.70;99.90
45339;DHT22;31071;51.478;5.710;2023-08-12T07:39:09;19.80;99.90
45339;DHT22;31071;51.478;5.710;2023-08-12T07:41:35;19.80;99.90
45339;DHT22;31071;51.478;5.710;2023-08-12T07:44:00;22.10;99.90
45339;DHT22;31071;51.478;5.710;2023-08-12T07:46:27;20.10;99.90
45339;DHT22;31071;51.478;5.710;2023-08-12T07:48:53;19.90;99.90
45339;DHT22;31071;51.478;5.710;2023-08-12T07:51:19;19.90;99.90
45339;DHT22;31071;51.478;5.710;2023-08-12T07:53:45;19.90;99.90
45339;DHT22;31071;51.478;5.710;2023-08-12T07:56:10;19.90;99.90
45339;DHT22;31071;51.478;5.710;2023-08-12T07:58:36;19.90;99.90
45339;DHT22;31071;51.478;5.710;2023-08-12T08:01:01;19.90;99.90
45339;DHT22;31071;51.478;5.710;2023-08-12T08:03:30;19.90;99.90
45339;DHT22;31071;51.478;5.710;2023-08-12T08:05:55;20.00;99.90
45339;DHT22;31071;51.478;5.710;2023-08-12T08:08:21;20.00;99.90
45339;DHT22;31071;51.478;5.710;2023-08-12T08:10:47;20.00;99.90
45339;DHT22;31071;51.478;5.710;2023-08-12T08:13:12;21.70;99.90
45339;DHT22;31071;51.478;5.710;2023-08-12T08:15:37;20.40;99.90
45339;DHT22;31071;51.478;5.710;2023-08-12T08:18:03;20.00;99.90
45339;DHT22;31071;51.478;5.710;2023-08-12T08:20:30;20.10;99.90
45339;DHT22;31071;51.478;5.710;2023-08-12T08:22:55;20.20;99.90
45339;DHT22;31071;51.478;5.710;2023-08-12T08:25:21;20.30;99.90
45339;DHT22;31071;51.478;5.710;2023-08-12T08:27:47;20.30;99.90
45339;DHT22;31071;51.478;5.710;2023-08-12T08:30:13;20.30;99.90
45339;DHT22;31071;51.478;5.710;2023-08-12T08:32:39;20.30;99.90
45339;DHT22;31071;51.478;5.710;2023-08-12T08:35:06;20.30;99.90
45339;DHT22;31071;51.478;5.710;2023-08-12T08:37:33;20.30;99.90
45339;DHT22;31071;51.478;5.710;2023-08-12T08:39:58;20.20;99.90
45339;DHT22;31071;51.478;5.710;2023-08-12T08:42:24;20.30;99.90
45339;DHT22;31071;51.478;5.710;2023-08-12T08:44:52;21.70;99.90
45339;DHT22;31071;51.478;5.710;2023-08-12T08:47:20;20.70;99.90
45339;DHT22;31071;51.478;5.710;2023-08-12T08:49:50;20.60;99.90
45339;DHT22;31071;51.478;5.710;2023-08-12T08:52:16;20.30;99.90
45339;DHT22;31071;51.478;5.710;2023-08-12T08:54:42;20.30;99.90
45339;DHT22;31071;51.478;5.710;2023-08-12T08:57:08;20.20;99.90
45339;DHT22;31071;51.478;5.710;2023-08-12T08:59:34;20.20;99.90
45339;DHT22;31071;51.478;5.710;2023-08-12T09:02:00;20.30;99.90
45339;DHT22;31071;51.478;5.710;2023-08-12T09:04:26;20.40;99.90
45339;DHT22;31071;51.478;5.710;2023-08-12T09:06:53;20.50;99.90
45339;DHT22;31071;51.478;5.710;2023-08-12T09:09:20;20.70;99.90
45339;DHT22;31071;51.478;5.710;2023-08-12T09:11:47;21.00;99.90
45339;DHT22;31071;51.478;5.710;2023-08-12T09:14:13;21.20;99.90
45339;DHT22;31071;51.478;5.710;2023-08-12T09:16:40;21.30;99.90
45339;DHT22;31071;51.478;5.710;2023-08-12T09:19:05;21.60;99.90
45339;DHT22;31071;51.478;5.710;2023-08-12T09:21:31;21.60;99.90
45339;DHT22;31071;51.478;5.710;2023-08-12T09:23:56;21.60;99.90
45339;DHT22;31071;51.478;5.710;2023-08-12T09:26:28;21.90;99.90
45339;DHT22;31071;51.478;5.710;2023-08-12T09:28:54;22.50;99.90
45339;DHT22;31071;51.478;5.710;2023-08-12T09:31:25;21.50;99.90
45339;DHT22;31071;51.478;5.710;2023-08-12T09:33:54;21.60;99.90
45339;DHT22;31071;51.478;5.710;2023-08-12T09:36:23;21.60;99.90
45339;DHT22;31071;51.478;5.710;2023-08-12T09:38:49;21.50;99.90
45339;DHT22;31071;51.478;5.710;2023-08-12T09:41:15;21.50;99.90
45339;DHT22;31071;51.478;5.710;2023-08-12T09:43:44;21.40;99.90
45339;DHT22;31071;51.478;5.710;2023-08-12T09:46:13;21.40;99.90
45339;DHT22;31071;51.478;5.710;2023-08-12T09:48:40;21.20;99.90
45339;DHT22;31071;51.478;5.710;2023-08-12T09:51:06;21.20;99.90
45339;DHT22;31071;51.478;5.710;2023-08-12T09:53:32;21.20;99.90
45339;DHT22;31071;51.478;5.710;2023-08-12T09:56:06;21.30;99.90
45339;DHT22;31071;51.478;5.710;2023-08-12T09:58:34;23.10;99.90
45339;DHT22;31071;51.478;5.710;2023-08-12T10:01:04;22.20;99.90
45339;DHT22;31071;51.478;5.710;2023-08-12T10:03:34;24.40;99.90
45339;DHT22;31071;51.478;5.710;2023-08-12T10:06:01;23.70;99.90
45339;DHT22;31071;51.478;5.710;2023-08-12T10:08:30;23.00;99.90
45339;DHT22;31071;51.478;5.710;2023-08-12T10:10:56;22.60;99.90
45339;DHT22;31071;51.478;5.710;2023-08-12T10:13:22;22.30;99.90
45339;DHT22;31071;51.478;5.710;2023-08-12T10:15:49;22.20;99.90
45339;DHT22;31071;51.478;5.710;2023-08-12T10:18:15;22.00;99.90
45339;DHT22;31071;51.478;5.710;2023-08-12T10:20:40;22.20;99.90
45339;DHT22;31071;51.478;5.710;2023-08-12T10:23:07;22.20;99.90
45339;DHT22;31071;51.478;5.710;2023-08-12T10:25:37;21.60;99.90
45339;DHT22;31071;51.478;5.710;2023-08-12T10:28:06;22.20;99.90
45339;DHT22;31071;51.478;5.710;2023-08-12T10:30:33;21.40;99.90
45339;DHT22;31071;51.478;5.710;2023-08-12T10:33:00;21.60;99.90
45339;DHT22;31071;51.478;5.710;2023-08-12T10:35:47;21.40;99.90
45339;DHT22;31071;51.478;5.710;2023-08-12T10:38:20;21.30;99.90
45339;DHT22;31071;51.478;5.710;2023-08-12T10:40:51;21.50;99.90
45339;DHT22;31071;51.478;5.710;2023-08-12T10:43:16;21.60;99.90
45339;DHT22;31071;51.478;5.710;2023-08-12T10:45:52;21.50;99.90
45339;DHT22;31071;51.478;5.710;2023-08-12T10:48:24;21.50;99.90
45339;DHT22;31071;51.478;5.710;2023-08-12T10:50:59;21.40;99.90
45339;DHT22;31071;51.478;5.710;2023-08-12T10:53:29;21.60;99.90
45339;DHT22;31071;51.478;5.710;2023-08-12T10:56:05;21.80;99.90
45339;DHT22;31071;51.478;5.710;2023-08-12T10:58:46;22.00;99.90
45339;DHT22;31071;51.478;5.710;2023-08-12T11:01:19;22.00;99.90
45339;DHT22;31071;51.478;5.710;2023-08-12T11:03:45;21.90;99.90
45339;DHT22;31071;51.478;5.710;2023-08-12T11:06:11;22.20;99.90
45339;DHT22;31071;51.478;5.710;2023-08-12T11:08:46;22.20;99.90
45339;DHT22;31071;51.478;5.710;2023-08-12T11:11:24;22.30;99.90
45339;DHT22;31071;51.478;5.710;2023-08-12T11:13:55;22.00;99.90
45339;DHT22;31071;51.478;5.710;2023-08-12T11:16:34;22.00;99.90
45339;DHT22;31071;51.478;5.710;2023-08-12T11:19:03;21.90;99.90
45339;DHT22;31071;51.478;5.710;2023-08-12T11:21:29;22.00;99.90
45339;DHT22;31071;51.478;5.710;2023-08-12T11:23:55;21.70;99.90
45339;DHT22;31071;51.478;5.710;2023-08-12T11:26:24;22.50;99.90
45339;DHT22;31071;51.478;5.710;2023-08-12T11:28:50;22.70;99.90
45339;DHT22;31071;51.478;5.710;2023-08-12T11:31:16;22.80;99.90
45339;DHT22;31071;51.478;5.710;2023-08-12T11:33:43;23.20;99.90
45339;DHT22;31071;51.478;5.710;2023-08-12T11:36:08;23.50;99.90
45339;DHT22;31071;51.478;5.710;2023-08-12T11:38:34;23.50;99.90
45339;DHT22;31071;51.478;5.710;2023-08-12T11:41:03;23.30;99.90
45339;DHT22;31071;51.478;5.710;2023-08-12T11:43:28;23.00;99.90
45339;DHT22;31071;51.478;5.710;2023-08-12T11:45:55;22.80;99.90
45339;DHT22;31071;51.478;5.710;2023-08-12T11:48:21;22.80;99.90
45339;DHT22;31071;51.478;5.710;2023-08-12T11:50:48;22.90;99.90
45339;DHT22;31071;51.478;5.710;2023-08-12T11:53:14;22.80;99.90
45339;DHT22;31071;51.478;5.710;2023-08-12T11:55:40;22.70;99.90
45339;DHT22;31071;51.478;5.710;2023-08-12T11:58:06;23.00;99.90
45339;DHT22;31071;51.478;5.710;2023-08-12T12:00:33;23.20;99.90
45339;DHT22;31071;51.478;5.710;2023-08-12T12:02:58;23.60;99.90
45339;DHT22;31071;51.478;5.710;2023-08-12T12:05:29;23.60;99.90
45339;DHT22;31071;51.478;5.710;2023-08-12T12:07:59;23.80;99.90
45339;DHT22;31071;51.478;5.710;2023-08-12T12:10:30;23.50;99.90
45339;DHT22;31071;51.478;5.710;2023-08-12T12:12:56;23.10;99.90
45339;DHT22;31071;51.478;5.710;2023-08-12T12:15:22;23.20;99.90
45339;DHT22;31071;51.478;5.710;2023-08-12T12:17:51;23.80;99.90
45339;DHT22;31071;51.478;5.710;2023-08-12T12:20:17;23.90;99.90
45339;DHT22;31071;51.478;5.710;2023-08-12T12:22:44;23.90;99.90
45339;DHT22;31071;51.478;5.710;2023-08-12T12:25:14;23.70;99.90
45339;DHT22;31071;51.478;5.710;2023-08-12T12:27:45;23.40;99.90
45339;DHT22;31071;51.478;5.710;2023-08-12T12:30:12;23.60;99.90
45339;DHT22;31071;51.478;5.710;2023-08-12T12:32:38;23.80;99.90
45339;DHT22;31071;51.478;5.710;2023-08-12T12:35:05;24.00;99.90
45339;DHT22;31071;51.478;5.710;2023-08-12T12:37:34;24.10;99.90
45339;DHT22;31071;51.478;5.710;2023-08-12T12:40:00;24.20;99.90
45339;DHT22;31071;51.478;5.710;2023-08-12T12:42:26;25.10;99.90
45339;DHT22;31071;51.478;5.710;2023-08-12T12:44:51;25.70;99.90
45339;DHT22;31071;51.478;5.710;2023-08-12T12:47:17;27.10;99.90
45339;DHT22;31071;51.478;5.710;2023-08-12T12:49:47;27.80;99.70
45339;DHT22;31071;51.478;5.710;2023-08-12T12:52:13;26.20;96.50
45339;DHT22;31071;51.478;5.710;2023-08-12T12:54:38;26.20;96.80
45339;DHT22;31071;51.478;5.710;2023-08-12T12:57:05;27.10;97.10
45339;DHT22;31071;51.478;5.710;2023-08-12T12:59:31;27.20;97.60
45339;DHT22;31071;51.478;5.710;2023-08-12T13:01:57;28.30;94.70
45339;DHT22;31071;51.478;5.710;2023-08-12T13:04:25;28.30;93.30
45339;DHT22;31071;51.478;5.710;2023-08-12T13:06:51;29.80;92.90
45339;DHT22;31071;51.478;5.710;2023-08-12T13:09:16;29.20;91.60
45339;DHT22;31071;51.478;5.710;2023-08-12T13:11:48;30.20;91.20
45339;DHT22;31071;51.478;5.710;2023-08-12T13:14:33;28.70;91.60
45339;DHT22;31071;51.478;5.710;2023-08-12T13:17:00;29.20;92.10
45339;DHT22;31071;51.478;5.710;2023-08-12T13:19:30;28.50;91.40
45339;DHT22;31071;51.478;5.710;2023-08-12T13:21:56;28.70;90.60
45339;DHT22;31071;51.478;5.710;2023-08-12T13:24:24;29.40;90.50
45339;DHT22;31071;51.478;5.710;2023-08-12T13:26:52;28.50;90.40
45339;DHT22;31071;51.478;5.710;2023-08-12T13:29:39;28.50;91.30
45339;DHT22;31071;51.478;5.710;2023-08-12T13:32:05;28.70;91.50
45339;DHT22;31071;51.478;5.710;2023-08-12T13:34:31;28.90;91.20
45339;DHT22;31071;51.478;5.710;2023-08-12T13:37:04;28.50;90.90
45339;DHT22;31071;51.478;5.710;2023-08-12T13:39:34;27.80;90.80
45339;DHT22;31071;51.478;5.710;2023-08-12T13:41:59;27.10;93.30
45339;DHT22;31071;51.478;5.710;2023-08-12T13:44:27;27.10;93.90
45339;DHT22;31071;51.478;5.710;2023-08-12T13:47:03;28.50;93.50
45339;DHT22;31071;51.478;5.710;2023-08-12T13:49:38;28.80;91.10
45339;DHT22;31071;51.478;5.710;2023-08-12T13:52:21;29.60;91.70
45339;DHT22;31071;51.478;5.710;2023-08-12T13:54:46;29.30;87.30
45339;DHT22;31071;51.478;5.710;2023-08-12T13:57:12;28.50;90.90
45339;DHT22;31071;51.478;5.710;2023-08-12T13:59:37;27.60;90.90
45339;DHT22;31071;51.478;5.710;2023-08-12T14:02:03;27.30;92.10
45339;DHT22;31071;51.478;5.710;2023-08-12T14:04:33;26.60;92.90
45339;DHT22;31071;51.478;5.710;2023-08-12T14:06:58;26.40;92.50
45339;DHT22;31071;51.478;5.710;2023-08-12T14:09:24;26.10;92.40
45339;DHT22;31071;51.478;5.710;2023-08-12T14:11:49;25.80;92.60
45339;DHT22;31071;51.478;5.710;2023-08-12T14:14:15;26.00;93.30
45339;DHT22;31071;51.478;5.710;2023-08-12T14:16:41;27.00;92.20
45339;DHT22;31071;51.478;5.710;2023-08-12T14:19:06;26.90;91.30
45339;DHT22;31071;51.478;5.710;2023-08-12T14:21:32;26.70;91.50
45339;DHT22;31071;51.478;5.710;2023-08-12T14:23:58;25.90;92.20
45339;DHT22;31071;51.478;5.710;2023-08-12T14:26:26;25.60;93.30
45339;DHT22;31071;51.478;5.710;2023-08-12T14:28:51;25.50;93.90
45339;DHT22;31071;51.478;5.710;2023-08-12T14:31:18;25.20;93.30
45339;DHT22;31071;51.478;5.710;2023-08-12T14:33:44;24.90;94.70
45339;DHT22;31071;51.478;5.710;2023-08-12T14:36:09;24.70;92.70
45339;DHT22;31071;51.478;5.710;2023-08-12T14:38:35;24.90;92.90
45339;DHT22;31071;51.478;5.710;2023-08-12T14:41:01;24.90;92.70
45339;DHT22;31071;51.478;5.710;2023-08-12T14:43:26;24.60;93.20
45339;DHT22;31071;51.478;5.710;2023-08-12T14:46:08;24.60;93.50
45339;DHT22;31071;51.478;5.710;2023-08-12T14:48:34;24.70;93.60
45339;DHT22;31071;51.478;5.710;2023-08-12T14:50:59;25.10;93.70
45339;DHT22;31071;51.478;5.710;2023-08-12T14:53:25;25.10;94.00
45339;DHT22;31071;51.478;5.710;2023-08-12T14:55:51;25.60;93.80
45339;DHT22;31071;51.478;5.710;2023-08-12T14:58:16;25.80;93.30
45339;DHT22;31071;51.478;5.710;2023-08-12T15:00:43;26.50;93.70
45339;DHT22;31071;51.478;5.710;2023-08-12T15:03:18;26.40;91.70
45339;DHT22;31071;51.478;5.710;2023-08-12T15:05:46;25.90;91.30
45339;DHT22;31071;51.478;5.710;2023-08-12T15:08:12;26.70;92.80
45339;DHT22;31071;51.478;5.710;2023-08-12T15:10:39;26.10;92.60
45339;DHT22;31071;51.478;5.710;2023-08-12T15:13:05;25.50;92.90
45339;DHT22;31071;51.478;5.710;2023-08-12T15:15:31;25.50;94.00
45339;DHT22;31071;51.478;5.710;2023-08-12T15:17:57;25.60;93.70
45339;DHT22;31071;51.478;5.710;2023-08-12T15:20:22;25.70;92.70
45339;DHT22;31071;51.478;5.710;2023-08-12T15:22:48;25.80;93.30
45339;DHT22;31071;51.478;5.710;2023-08-12T15:25:14;26.10;93.20
45339;DHT22;31071;51.478;5.710;2023-08-12T15:27:39;26.20;93.50
45339;DHT22;31071;51.478;5.710;2023-08-12T15:30:05;26.10;93.20
45339;DHT22;31071;51.478;5.710;2023-08-12T15:32:31;26.00;93.30